Time;durP1;ratioP1;P1;durP2;ratioP2;P2;SDS_P1;SDS_P2;PMS_P1;PMS_P2;Temp;Humidity;BMP_temperature;BMP_pressure;BME280_temperature;BME280_humidity;BME280_pressure;Samples;Min_cycle;Max_cycle;Signal;HPM_P1;HPM_P2
2022/11/11 00:00:22;;;;;;;;;13.33;13.33;;;;;13.61;98.51;102586.38;5110415;27;47305;-79
2022/11/11 00:02:48;;;;;;;;;17.00;16.00;;;;;13.61;98.75;102572.16;5106236;27;45369;-77
2022/11/11 00:05:14;;;;;;;;;15.33;15.33;;;;;13.64;98.85;102569.19;5106059;27;45415;-77
2022/11/11 00:07:39;;;;;;;;;16.67;16.33;;;;;13.54;98.81;102555.06;5101803;27;45708;-77
2022/11/11 00:10:06;;;;;;;;;15.67;15.00;;;;;13.50;99.00;102558.03;5097349;27;48131;-77
2022/11/11 00:12:31;;;;;;;;;15.00;15.00;;;;;13.49;98.58;102552.81;5106477;27;45745;-77
2022/11/11 00:14:56;;;;;;;;;15.00;13.33;;;;;13.48;99.20;102564.47;5100101;27;45759;-77
2022/11/11 00:25:36;;;;;;;;;17.00;15.67;;;;;13.36;99.34;102555.84;5101960;27;45439;-77
2022/11/11 00:28:02;;;;;;;;;17.00;17.00;;;;;13.41;99.02;102560.72;5100535;27;46012;-77
2022/11/11 00:30:28;;;;;;;;;14.00;14.00;;;;;13.39;98.95;102568.88;5101915;27;45261;-78
2022/11/11 00:32:53;;;;;;;;;18.33;17.00;;;;;13.36;99.41;102562.03;5101949;27;45763;-77
2022/11/11 00:38:44;;;;;;;;;15.67;14.67;;;;;13.39;99.37;102568.88;5101417;27;45267;-77
2022/11/11 00:40:56;;;;;;;;;18.67;15.67;;;;;13.31;99.22;102566.09;5101376;27;45779;-77
2022/11/11 00:43:22;;;;;;;;;13.67;13.67;;;;;13.33;98.99;102572.16;5097098;27;45520;-77
2022/11/11 00:45:47;;;;;;;;;11.33;11.33;;;;;13.23;98.61;102566.88;5112309;27;45617;-77
2022/11/11 00:50:59;;;;;;;;;14.33;14.33;;;;;13.18;98.99;102577.97;5101323;27;45871;-77
2022/11/11 00:53:31;;;;;;;;;13.67;13.33;;;;;13.23;99.11;102590.91;5101545;27;45290;-77
2022/11/11 00:55:57;;;;;;;;;15.67;13.33;;;;;13.21;99.16;102593.72;5113168;27;45491;-77
2022/11/11 00:58:23;;;;;;;;;12.00;12.00;;;;;13.16;99.01;102585.28;5101524;27;45243;-77
2022/11/11 01:00:52;;;;;;;;;11.33;11.33;;;;;13.12;100.00;102590.09;5107606;27;46062;-76
2022/11/11 01:03:18;;;;;;;;;12.67;12.67;;;;;13.13;99.63;102586.44;5087278;27;45374;-77
2022/11/11 01:05:44;;;;;;;;;10.00;10.00;;;;;13.17;99.73;102580.78;5096830;27;45384;-77
2022/11/11 01:08:09;;;;;;;;;15.00;14.00;;;;;13.10;99.66;102561.84;5098741;27;45933;-77
2022/11/11 01:10:40;;;;;;;;;11.33;10.33;;;;;13.14;100.00;102563.22;5106981;27;47074;-77
2022/11/11 01:13:17;;;;;;;;;11.67;10.67;;;;;13.19;99.85;102566.31;5099903;27;45292;-77
2022/11/11 01:15:45;;;;;;;;;13.00;11.33;;;;;13.24;100.00;102566.72;5087570;27;45379;-77
2022/11/11 01:18:13;;;;;;;;;12.67;11.67;;;;;13.23;99.97;102565.00;5101214;27;45318;-77
2022/11/11 01:20:40;;;;;;;;;12.33;11.33;;;;;13.23;99.79;102562.34;5100416;27;46262;-77
2022/11/11 01:23:07;;;;;;;;;8.67;8.67;;;;;13.20;99.67;102554.63;5100921;27;45296;-77
2022/11/11 01:25:34;;;;;;;;;12.00;11.00;;;;;13.22;100.00;102557.16;5100974;27;45321;-77
2022/11/11 01:28:00;;;;;;;;;13.00;13.00;;;;;13.23;100.00;102573.03;5106022;27;47412;-77
2022/11/11 01:30:25;;;;;;;;;15.33;13.00;;;;;13.22;99.97;102560.69;5100712;27;45247;-77
2022/11/11 01:32:51;;;;;;;;;12.00;12.00;;;;;13.28;99.98;102577.94;5101338;27;45630;-77
2022/11/11 01:35:16;;;;;;;;;13.33;11.67;;;;;13.30;100.00;102578.63;5101075;27;45290;-77
2022/11/11 01:37:41;;;;;;;;;10.33;10.33;;;;;13.26;100.00;102566.56;5100202;27;49224;-78
2022/11/11 01:40:07;;;;;;;;;11.00;9.67;;;;;13.32;99.96;102560.63;5100738;27;45427;-77
2022/11/11 01:42:50;;;;;;;;;11.67;11.67;;;;;13.29;100.00;102565.44;5113944;27;46054;-77
2022/11/11 01:45:54;;;;;;;;;12.00;11.67;;;;;13.36;99.72;102562.03;5100994;27;45465;-77
2022/11/11 01:51:43;;;;;;;;;11.33;11.33;;;;;13.27;99.63;102568.25;5100384;27;45299;-78
2022/11/11 01:54:33;;;;;;;;;14.00;11.00;;;;;13.25;99.65;102580.88;5100267;27;45346;-77
2022/11/11 01:57:04;;;;;;;;;11.67;11.00;;;;;13.18;100.00;102571.78;5100474;27;45304;-77
2022/11/11 01:59:31;;;;;;;;;11.00;9.00;;;;;13.27;100.00;102581.59;5113180;27;47079;-76
2022/11/11 02:01:57;;;;;;;;;11.33;11.00;;;;;13.26;100.00;102583.41;5111471;27;48532;-77
2022/11/11 02:07:09;;;;;;;;;10.00;9.00;;;;;13.35;100.00;102580.88;5100374;27;45319;-76
2022/11/11 02:09:37;;;;;;;;;10.67;10.67;;;;;13.40;100.00;102591.94;5100129;27;45464;-77
2022/11/11 02:14:54;;;;;;;;;8.33;8.33;;;;;13.42;100.00;102575.75;5100184;27;45436;-77
2022/11/11 02:17:19;;;;;;;;;9.33;7.33;;;;;13.39;99.74;102566.22;5100233;27;45364;-76
2022/11/11 02:20:02;;;;;;;;;10.67;9.67;;;;;13.43;100.00;102572.09;5107560;27;45937;-77
2022/11/11 02:22:39;;;;;;;;;11.00;10.67;;;;;13.45;99.86;102570.97;5100103;27;46687;-77
2022/11/11 02:25:09;;;;;;;;;10.33;10.33;;;;;13.44;99.66;102576.47;5109360;27;45984;-77
2022/11/11 02:27:38;;;;;;;;;10.00;10.00;;;;;13.39;99.95;102572.38;5100434;27;45383;-77
2022/11/11 02:30:06;;;;;;;;;9.33;9.33;;;;;13.40;99.54;102581.25;5100036;27;45436;-77
2022/11/11 02:32:31;;;;;;;;;7.00;6.33;;;;;13.38;99.67;102568.03;5098615;27;45472;-77
2022/11/11 02:34:56;;;;;;;;;9.33;9.00;;;;;13.42;99.20;102573.94;5100085;27;45286;-77
2022/11/11 02:37:24;;;;;;;;;12.33;11.33;;;;;13.42;99.57;102568.59;5099882;27;45263;-77
2022/11/11 02:39:53;;;;;;;;;9.33;8.67;;;;;13.40;99.41;102565.22;5098553;27;45985;-77
2022/11/11 02:42:20;;;;;;;;;10.00;10.00;;;;;13.37;99.71;102568.19;5099631;27;45286;-77
2022/11/11 02:44:45;;;;;;;;;8.00;8.00;;;;;13.31;99.25;102558.09;5100024;27;45345;-77
2022/11/11 02:47:11;;;;;;;;;10.00;9.33;;;;;13.20;99.14;102548.47;5099996;27;45539;-77
2022/11/11 02:49:36;;;;;;;;;6.00;6.00;;;;;13.24;99.29;102552.50;5099639;27;45536;-77
2022/11/11 02:52:02;;;;;;;;;8.00;8.00;;;;;13.27;99.48;102557.56;5094673;27;48087;-77
2022/11/11 02:54:31;;;;;;;;;7.00;7.00;;;;;13.23;98.95;102542.84;5109455;27;45437;-77
2022/11/11 02:57:08;;;;;;;;;9.33;9.33;;;;;13.22;99.10;102560.69;5089575;27;45283;-77
2022/11/11 02:59:35;;;;;;;;;6.67;6.33;;;;;13.21;99.29;102560.81;5099476;27;45649;-77
2022/11/11 03:02:00;;;;;;;;;8.00;7.00;;;;;13.22;99.52;102560.69;5106067;27;46127;-77
2022/11/11 03:04:26;;;;;;;;;9.33;9.33;;;;;13.20;99.44;102557.28;5099581;27;45295;-77
2022/11/11 03:06:51;;;;;;;;;7.33;7.33;;;;;13.23;99.61;102558.84;5099821;27;45290;-77
2022/11/11 03:09:16;;;;;;;;;8.00;8.00;;;;;13.22;99.48;102558.00;5099408;27;45389;-77
2022/11/11 03:11:42;;;;;;;;;8.67;7.67;;;;;13.23;99.64;102562.34;5099305;27;45356;-76
2022/11/11 03:14:08;;;;;;;;;10.33;9.67;;;;;13.25;99.37;102567.53;5099339;27;45333;-76
2022/11/11 03:19:18;;;;;;;;;8.67;8.67;;;;;13.24;99.63;102580.06;5087153;27;45368;-77
2022/11/11 03:21:44;;;;;;;;;8.00;8.00;;;;;13.20;99.63;102580.50;5099191;27;45360;-76
2022/11/11 03:24:10;;;;;;;;;10.67;9.00;;;;;13.17;99.77;102575.47;5099322;27;45600;-77
2022/11/11 03:26:36;;;;;;;;;10.67;9.67;;;;;13.16;100.00;102574.59;5087479;27;45429;-77
2022/11/11 03:29:01;;;;;;;;;9.00;7.00;;;;;13.23;99.99;102570.34;5097310;27;45544;-77
2022/11/11 03:31:27;;;;;;;;;9.67;9.67;;;;;13.20;100.00;102567.16;5094685;27;48162;-77
2022/11/11 03:33:52;;;;;;;;;11.00;10.33;;;;;13.20;100.00;102565.31;5109605;27;45715;-77
2022/11/11 03:36:17;;;;;;;;;10.00;10.00;;;;;13.18;100.00;102561.09;5099339;27;45764;-76
2022/11/11 03:38:43;;;;;;;;;9.67;9.67;;;;;13.25;100.00;102570.22;5108728;27;46196;-77
2022/11/11 03:41:08;;;;;;;;;7.33;7.33;;;;;13.26;100.00;102564.72;5099171;27;46116;-77
2022/11/11 03:43:36;;;;;;;;;8.67;8.00;;;;;13.34;100.00;102561.31;5108840;27;45288;-77
2022/11/11 03:46:04;;;;;;;;;9.67;9.00;;;;;13.34;100.00;102552.47;5101428;27;45416;-76
2022/11/11 03:48:32;;;;;;;;;10.00;10.00;;;;;13.27;100.00;102552.22;5102565;27;45437;-77
2022/11/11 03:50:57;;;;;;;;;9.33;9.33;;;;;13.30;100.00;102572.44;5102255;27;45618;-77
2022/11/11 03:53:23;;;;;;;;;9.00;9.00;;;;;13.29;100.00;102573.44;5102456;27;45305;-77
2022/11/11 03:55:49;;;;;;;;;12.00;9.67;;;;;13.35;100.00;102581.69;5102773;27;45306;-77
2022/11/11 03:58:15;;;;;;;;;6.67;6.00;;;;;13.32;100.00;102578.50;5102577;27;45321;-77
2022/11/11 04:00:43;;;;;;;;;12.00;11.33;;;;;13.39;100.00;102584.91;5107351;27;46084;-77
2022/11/11 04:11:55;;;;;;;;;10.67;10.67;;;;;13.35;100.00;102588.88;5102055;27;45385;-77
2022/11/11 04:17:04;;;;;;;;;11.00;8.33;;;;;13.38;100.00;102607.28;5102115;27;45420;-77
2022/11/11 04:22:13;;;;;;;;;9.67;9.00;;;;;13.37;100.00;102608.25;5101813;27;45479;-77
2022/11/11 04:27:22;;;;;;;;;9.33;6.67;;;;;13.21;100.00;102595.53;5102122;27;45372;-77
2022/11/11 04:29:49;;;;;;;;;12.33;10.67;;;;;13.16;100.00;102595.09;5107868;27;47341;-76
2022/11/11 04:32:34;;;;;;;;;8.33;8.33;;;;;13.19;100.00;102603.69;5100478;27;48023;-77
2022/11/11 04:35:02;;;;;;;;;9.00;8.67;;;;;13.17;100.00;102597.63;5101855;27;45306;-76
2022/11/11 04:37:31;;;;;;;;;9.33;7.67;;;;;13.12;100.00;102600.78;5101611;27;45318;-77
2022/11/11 04:42:40;;;;;;;;;4.00;2.67;;;;;13.13;100.00;102594.44;5101817;27;45661;-77
2022/11/11 04:45:27;;;;;;;;;11.00;10.00;;;;;13.15;100.00;102602.31;5101821;27;45298;-77
2022/11/11 04:47:57;;;;;;;;;9.00;8.33;;;;;13.16;100.00;102600.44;5116191;27;45412;-76
2022/11/11 04:50:25;;;;;;;;;8.67;8.67;;;;;13.13;100.00;102586.44;5101588;27;45176;-77
2022/11/11 04:52:51;;;;;;;;;9.00;9.00;;;;;13.16;100.00;102581.75;5101132;27;45249;-77
2022/11/11 04:58:01;;;;;;;;;11.00;10.00;;;;;13.22;100.00;102584.69;5101578;27;45550;-77
2022/11/11 05:00:26;;;;;;;;;8.67;8.33;;;;;13.20;100.00;102576.00;5104344;27;46620;-77
2022/11/11 05:11:13;;;;;;;;;13.00;11.33;;;;;13.28;100.00;102571.75;5100908;27;45328;-77
2022/11/11 05:21:59;;;;;;;;;11.00;9.00;;;;;13.28;100.00;102585.94;5100754;27;45265;-77
2022/11/11 05:27:28;;;;;;;;;9.67;8.67;;;;;13.27;100.00;102586.94;5098883;27;45435;-76
2022/11/11 05:29:54;;;;;;;;;7.00;5.00;;;;;13.32;100.00;102589.16;5098973;27;45308;-77
2022/11/11 05:32:21;;;;;;;;;9.00;7.00;;;;;13.34;100.00;102595.19;5093397;27;45386;-77
2022/11/11 05:34:47;;;;;;;;;7.67;7.67;;;;;13.33;100.00;102582.84;5101087;27;45262;-77
2022/11/11 05:37:13;;;;;;;;;10.33;10.00;;;;;13.28;100.00;102574.41;5100360;27;45289;-77
2022/11/11 05:39:38;;;;;;;;;10.00;8.00;;;;;13.22;99.88;102574.03;5101123;27;45432;-77
2022/11/11 05:42:04;;;;;;;;;8.67;8.33;;;;;13.24;99.64;102577.41;5100924;27;45350;-77
2022/11/11 05:44:30;;;;;;;;;9.00;8.00;;;;;13.13;100.00;102574.91;5100720;27;45379;-76
2022/11/11 05:46:55;;;;;;;;;11.67;10.00;;;;;13.29;100.00;102598.28;5100951;27;45731;-76
2022/11/11 05:49:21;;;;;;;;;9.00;8.00;;;;;13.24;100.00;102592.56;5100591;27;45392;-77
2022/11/11 05:51:46;;;;;;;;;8.67;8.67;;;;;13.22;100.00;102591.88;5100560;27;45391;-77
2022/11/11 05:54:13;;;;;;;;;10.00;8.67;;;;;13.22;100.00;102594.53;5100492;27;45231;-77
2022/11/11 05:56:39;;;;;;;;;7.33;7.33;;;;;13.17;99.32;102583.47;5100847;27;45374;-77
2022/11/11 05:59:06;;;;;;;;;8.00;8.00;;;;;13.19;99.72;102593.00;5109996;27;45333;-77
2022/11/11 06:01:31;;;;;;;;;9.33;8.33;;;;;13.10;99.82;102586.72;5105692;27;47356;-76
2022/11/11 06:03:57;;;;;;;;;10.00;8.00;;;;;13.08;99.77;102583.34;5100344;27;45322;-77
2022/11/11 06:06:22;;;;;;;;;6.00;6.00;;;;;13.10;99.87;102596.53;5100079;27;45177;-77
2022/11/11 06:08:47;;;;;;;;;7.33;7.00;;;;;12.99;100.00;102577.03;5105475;27;45320;-76
2022/11/11 06:11:13;;;;;;;;;8.67;8.67;;;;;13.06;99.33;102590.66;5098973;27;45913;-77
2022/11/11 06:13:38;;;;;;;;;9.67;9.67;;;;;12.98;99.56;102585.19;5098995;27;47586;-77
2022/11/11 06:16:04;;;;;;;;;10.00;8.67;;;;;13.04;99.39;102592.63;5095552;27;45794;-77
2022/11/11 06:18:29;;;;;;;;;9.33;9.33;;;;;13.03;99.32;102590.97;5095795;27;45380;-77
2022/11/11 06:20:56;;;;;;;;;12.00;10.33;;;;;12.99;99.05;102587.72;5100163;27;45503;-79
2022/11/11 06:23:22;;;;;;;;;11.67;10.67;;;;;13.05;98.43;102604.97;5100187;27;45464;-79
2022/11/11 06:28:33;;;;;;;;;8.00;6.67;;;;;13.05;98.13;102620.19;5100274;27;45411;-78
2022/11/11 06:30:58;;;;;;;;;10.33;9.67;;;;;12.99;98.16;102613.59;5100187;27;45445;-78
2022/11/11 06:33:24;;;;;;;;;11.67;11.67;;;;;13.00;98.07;102617.94;5098886;27;48063;-79
2022/11/11 06:35:49;;;;;;;;;13.00;12.67;;;;;12.99;98.45;102624.25;5099797;27;45421;-79
2022/11/11 06:38:15;;;;;;;;;12.00;12.00;;;;;13.10;98.27;102625.91;5100046;27;45357;-79
2022/11/11 06:40:41;;;;;;;;;11.67;9.33;;;;;13.07;98.17;102611.03;5097178;27;46064;-79
2022/11/11 06:43:07;;;;;;;;;12.00;11.67;;;;;13.09;98.02;102611.75;5095082;27;47520;-79
2022/11/11 06:45:34;;;;;;;;;15.00;12.00;;;;;13.09;97.56;102618.88;5093963;27;45209;-79
2022/11/11 06:47:59;;;;;;;;;14.00;13.33;;;;;12.97;98.00;102605.72;5099903;27;45333;-78
2022/11/11 06:50:25;;;;;;;;;13.33;10.67;;;;;13.02;98.21;102621.28;5099612;27;45462;-79
2022/11/11 06:52:51;;;;;;;;;10.67;10.67;;;;;13.03;98.49;102616.78;5099360;27;45418;-78
2022/11/11 06:55:16;;;;;;;;;11.33;10.00;;;;;13.07;98.56;102623.53;5099795;27;45337;-79
2022/11/11 06:57:41;;;;;;;;;12.33;12.00;;;;;13.09;98.55;102618.88;5094719;27;45539;-79
2022/11/11 07:00:07;;;;;;;;;12.67;12.67;;;;;13.15;98.16;102631.66;5095053;27;46090;-79
2022/11/11 07:02:32;;;;;;;;;14.67;11.33;;;;;13.15;98.35;102639.69;5104424;27;48265;-77
2022/11/11 07:04:59;;;;;;;;;11.00;11.00;;;;;13.07;97.97;102626.19;5098402;27;45373;-77
2022/11/11 07:07:24;;;;;;;;;14.33;12.00;;;;;13.13;97.88;102639.81;5107090;27;45377;-78
2022/11/11 07:09:50;;;;;;;;;13.00;11.33;;;;;13.09;97.68;102630.41;5099228;27;45287;-77
2022/11/11 07:12:15;;;;;;;;;11.67;10.00;;;;;13.03;97.95;102619.47;5099354;27;45359;-78
2022/11/11 07:14:40;;;;;;;;;15.33;15.33;;;;;13.03;97.98;102617.66;5102086;27;45326;-77
2022/11/11 07:17:06;;;;;;;;;12.00;12.00;;;;;13.08;98.18;102619.88;5099668;27;45339;-79
2022/11/11 07:19:31;;;;;;;;;16.33;14.00;;;;;13.16;97.80;102632.47;5098327;27;46134;-79
2022/11/11 07:21:56;;;;;;;;;11.67;11.33;;;;;13.07;98.07;102615.50;5098121;27;49741;-79
2022/11/11 07:24:22;;;;;;;;;10.33;10.33;;;;;13.11;97.94;102616.94;5103291;27;45333;-78
2022/11/11 07:26:47;;;;;;;;;13.33;13.00;;;;;13.12;97.85;102610.59;5103069;27;45469;-78
2022/11/11 07:29:15;;;;;;;;;18.00;16.00;;;;;13.23;98.18;102625.59;5102694;27;45528;-79
2022/11/11 07:31:41;;;;;;;;;14.00;13.33;;;;;13.18;97.94;102614.50;5102472;27;45984;-80
2022/11/11 07:34:07;;;;;;;;;29.33;28.00;;;;;13.30;97.81;102624.03;5101698;27;45548;-80
2022/11/11 07:36:32;;;;;;;;;16.33;13.67;;;;;13.31;97.35;102627.53;5101294;27;45397;-79
2022/11/11 07:38:58;;;;;;;;;14.67;14.00;;;;;13.23;97.02;102614.94;5102412;27;45745;-80
2022/11/11 07:41:23;;;;;;;;;14.67;13.00;;;;;13.21;97.18;102609.72;5102837;27;46198;-79
2022/11/11 07:43:49;;;;;;;;;15.67;14.00;;;;;13.22;97.06;102614.06;5102670;27;45377;-80
2022/11/11 07:46:14;;;;;;;;;12.00;12.00;;;;;13.25;97.29;102624.47;5102757;27;45654;-78
2022/11/11 07:48:40;;;;;;;;;15.67;14.67;;;;;13.26;96.83;102628.81;5109829;27;45735;-77
2022/11/11 07:51:05;;;;;;;;;17.67;14.67;;;;;13.29;96.96;102622.31;5102184;27;45357;-78
2022/11/11 07:53:30;;;;;;;;;11.00;11.00;;;;;13.25;97.19;102616.44;5102593;27;45388;-79
2022/11/11 07:55:56;;;;;;;;;13.67;12.00;;;;;13.38;97.40;102628.66;5102723;27;45366;-80
2022/11/11 07:58:21;;;;;;;;;14.33;14.33;;;;;13.31;97.52;102628.38;5102584;27;45482;-79
2022/11/11 08:00:46;;;;;;;;;15.33;14.33;;;;;13.41;97.30;102646.19;5108606;27;46954;-77
2022/11/11 08:03:12;;;;;;;;;14.00;14.00;;;;;13.39;97.49;102644.50;5102973;27;45326;-78
2022/11/11 08:05:37;;;;;;;;;12.00;10.33;;;;;13.43;97.19;102637.03;5091336;27;45307;-78
2022/11/11 08:08:07;;;;;;;;;15.00;13.00;;;;;13.43;97.02;102631.69;5099801;27;47295;-79
2022/11/11 08:10:33;;;;;;;;;17.00;17.00;;;;;13.47;96.93;102632.25;5083751;27;47080;-79
2022/11/11 08:15:42;;;;;;;;;17.00;14.67;;;;;13.35;97.21;102628.94;5088272;27;45322;-77
2022/11/11 08:18:08;;;;;;;;;15.67;15.00;;;;;13.32;97.02;102632.72;5102077;27;51490;-78
2022/11/11 08:20:34;;;;;;;;;12.00;10.00;;;;;13.25;97.03;102618.28;5116084;27;47204;-78
2022/11/11 08:22:59;;;;;;;;;14.33;14.00;;;;;13.24;96.97;102625.47;5101027;27;45313;-78
2022/11/11 08:25:25;;;;;;;;;12.00;12.00;;;;;13.30;96.92;102640.06;5097370;27;45807;-78
2022/11/11 08:28:00;;;;;;;;;16.33;13.33;;;;;13.30;97.26;102637.38;5087557;27;45409;-78
2022/11/11 08:30:26;;;;;;;;;15.00;14.33;;;;;13.21;97.44;102617.75;5097381;27;47145;-78
2022/11/11 08:33:02;;;;;;;;;12.67;12.67;;;;;13.32;97.12;102634.56;5104968;27;46063;-78
2022/11/11 08:35:29;;;;;;;;;9.33;9.33;;;;;13.31;96.61;102636.38;5089764;27;45215;-78
2022/11/11 08:37:54;;;;;;;;;10.00;10.00;;;;;13.19;96.79;102622.38;5101760;27;45230;-77
2022/11/11 08:40:20;;;;;;;;;8.67;8.67;;;;;13.29;96.78;102637.53;5116695;27;46986;-77
2022/11/11 08:42:46;;;;;;;;;11.33;9.33;;;;;13.12;96.39;102630.13;5088531;27;45152;-78
2022/11/11 08:45:11;;;;;;;;;12.00;12.00;;;;;13.21;96.96;102647.09;5084835;27;48529;-78
2022/11/11 08:47:37;;;;;;;;;9.00;9.00;;;;;13.08;96.55;102627.91;5093372;27;46481;-77
2022/11/11 08:50:04;;;;;;;;;11.33;10.33;;;;;13.10;96.77;102647.25;5095174;27;45439;-78
2022/11/11 08:52:29;;;;;;;;;9.33;7.00;;;;;13.02;96.28;102649.81;5101557;27;45404;-76
2022/11/11 08:54:55;;;;;;;;;9.00;9.00;;;;;13.00;96.59;102648.13;5101708;27;45377;-78
2022/11/11 08:57:20;;;;;;;;;13.00;11.67;;;;;12.99;97.00;102643.78;5107344;27;46317;-78
2022/11/11 08:59:46;;;;;;;;;8.33;8.33;;;;;12.99;97.06;102643.78;5100601;27;47511;-78
2022/11/11 09:02:12;;;;;;;;;9.67;9.67;;;;;13.07;97.09;102667.09;5091437;27;45570;-78
2022/11/11 09:04:39;;;;;;;;;9.33;9.33;;;;;13.03;97.24;102646.16;5081659;27;45348;-78
2022/11/11 09:07:09;;;;;;;;;10.33;9.00;;;;;13.13;97.11;102663.84;5090995;27;45640;-78
2022/11/11 09:09:34;;;;;;;;;9.00;9.00;;;;;13.01;96.83;102651.63;5081500;27;47180;-79
2022/11/11 09:12:00;;;;;;;;;9.33;9.00;;;;;13.02;97.07;102657.81;5084197;27;45492;-79
2022/11/11 09:14:26;;;;;;;;;9.33;9.33;;;;;13.05;97.16;102653.03;5093376;27;45338;-77
2022/11/11 09:16:51;;;;;;;;;7.00;7.00;;;;;13.17;96.97;102666.22;5102094;27;45357;-78
2022/11/11 09:19:16;;;;;;;;;7.67;7.00;;;;;13.18;97.00;102663.41;5101140;27;46022;-76
2022/11/11 09:21:42;;;;;;;;;11.00;11.00;;;;;13.21;97.19;102657.78;5096145;27;45413;-78
2022/11/11 09:24:07;;;;;;;;;11.67;11.67;;;;;13.11;97.20;102644.44;5083218;27;45459;-79
2022/11/11 09:26:32;;;;;;;;;11.33;9.33;;;;;13.26;96.96;102665.38;5079006;27;46221;-78
2022/11/11 09:28:58;;;;;;;;;12.00;12.00;;;;;13.22;96.56;102654.13;5082517;27;45329;-80
2022/11/11 09:31:23;;;;;;;;;12.00;9.00;;;;;13.30;96.50;102673.91;5089940;27;45337;-79
2022/11/11 09:33:51;;;;;;;;;11.33;10.67;;;;;13.29;96.83;102659.72;5101097;27;45336;-79
2022/11/11 09:36:18;;;;;;;;;8.00;7.33;;;;;13.37;96.84;102665.19;5096122;27;45945;-79
2022/11/11 09:38:43;;;;;;;;;12.67;11.00;;;;;13.47;96.57;102667.81;5095277;27;45408;-79
2022/11/11 09:41:11;;;;;;;;;9.67;9.67;;;;;13.50;96.70;102666.72;5102426;27;51416;-80
2022/11/11 09:43:50;;;;;;;;;9.33;9.33;;;;;13.56;96.71;102676.78;5099738;27;45246;-80
2022/11/11 09:46:15;;;;;;;;;11.33;11.33;;;;;13.64;97.08;102684.09;5102271;27;46346;-82
2022/11/11 09:48:59;;;;;;;;;9.00;9.00;;;;;13.70;96.30;102674.63;5105545;27;45139;-84
2022/11/11 09:52:01;;;;;;;;;7.00;7.00;;;;;13.69;95.58;102681.81;5099527;27;45326;-83
2022/11/11 09:54:37;;;;;;;;;9.00;9.00;;;;;13.68;95.74;102682.78;5101065;27;45375;-82
2022/11/11 09:57:12;;;;;;;;;10.33;9.33;;;;;13.69;95.27;102679.16;5108103;27;46196;-82
2022/11/11 09:59:51;;;;;;;;;11.00;10.33;;;;;13.73;95.27;102683.22;5101160;27;45334;-82
2022/11/11 10:02:33;;;;;;;;;10.67;10.00;;;;;13.66;95.37;102670.59;5090240;27;45179;-82
2022/11/11 10:05:11;;;;;;;;;9.00;8.67;;;;;13.57;95.48;102665.16;5108636;27;45317;-82
2022/11/11 10:07:47;;;;;;;;;13.67;11.67;;;;;13.56;95.41;102660.78;5094272;27;45411;-82
2022/11/11 10:10:19;;;;;;;;;10.33;10.33;;;;;13.68;95.61;102680.13;5095872;27;46282;-82
2022/11/11 10:12:54;;;;;;;;;12.00;9.33;;;;;13.62;95.68;102665.53;5110104;27;45782;-82
2022/11/11 10:15:21;;;;;;;;;11.00;10.00;;;;;13.75;95.86;102675.91;5101887;27;45500;-83
2022/11/11 10:18:14;;;;;;;;;11.00;10.00;;;;;13.74;95.27;102682.22;5101745;27;45696;-84
2022/11/11 10:20:44;;;;;;;;;10.33;10.33;;;;;13.73;95.64;102680.53;5105352;27;45533;-80
2022/11/11 10:23:16;;;;;;;;;8.00;7.00;;;;;13.74;95.79;102682.22;5103209;27;45462;-81
2022/11/11 10:25:50;;;;;;;;;11.33;10.00;;;;;13.36;95.38;102618.09;5123044;22;45279;-79
2022/11/11 10:28:19;;;;;;;;;13.00;11.00;;;;;13.76;95.37;102660.69;5065532;28;46007;-82
2022/11/11 10:30:51;;;;;;;;;9.00;8.67;;;;;13.58;95.26;102633.91;5074821;28;47038;-79
2022/11/11 10:33:23;;;;;;;;;9.33;9.33;;;;;13.95;94.81;102686.47;5066757;28;45603;-79
2022/11/11 10:35:50;;;;;;;;;11.00;9.00;;;;;13.79;95.13;102651.53;5064541;28;45385;-79
2022/11/11 10:38:27;;;;;;;;;13.33;12.33;;;;;14.02;95.37;102665.34;5066527;28;45296;-79
2022/11/11 10:40:55;;;;;;;;;11.33;10.67;;;;;14.07;95.09;102675.59;5066584;28;45343;-79
2022/11/11 10:43:28;;;;;;;;;13.00;12.00;;;;;14.13;94.93;102683.00;5066278;28;45486;-80
2022/11/11 10:46:06;;;;;;;;;12.00;12.00;;;;;13.96;94.13;102655.25;5078326;28;44729;-82
2022/11/11 10:48:45;;;;;;;;;11.33;11.33;;;;;13.93;94.22;102655.53;5053908;28;45705;-81
2022/11/11 10:51:13;;;;;;;;;9.00;8.33;;;;;14.07;94.20;102673.72;5060312;28;47065;-81
2022/11/11 10:53:49;;;;;;;;;11.00;10.00;;;;;13.95;94.27;102648.22;5058059;28;45441;-79
2022/11/11 10:56:24;;;;;;;;;10.00;10.00;;;;;14.17;94.01;102680.84;5059794;28;45215;-79
2022/11/11 10:58:49;;;;;;;;;13.67;10.00;;;;;14.19;94.23;102679.72;5058487;28;45539;-80
2022/11/11 11:01:21;;;;;;;;;12.00;10.67;;;;;14.11;94.02;102647.53;5062137;28;46140;-79
2022/11/11 11:03:54;;;;;;;;;1.00;1.00;;;;;14.17;93.73;102657.66;5067031;28;45456;-84
2022/11/11 11:06:33;;;;;;;;;13.67;12.00;;;;;14.14;93.70;102636.56;5060882;28;45424;-79
2022/11/11 11:09:18;;;;;;;;;12.33;12.33;;;;;14.35;93.49;102670.19;5059485;28;46927;-83
2022/11/11 11:12:04;;;;;;;;;11.67;11.33;;;;;14.36;93.79;102651.31;5061788;28;46106;-82
2022/11/11 11:14:38;;;;;;;;;13.00;11.00;;;;;14.47;93.17;102657.41;5075814;28;45265;-81
2022/11/11 11:17:12;;;;;;;;;14.67;14.33;;;;;14.56;93.25;102661.84;5063623;28;45639;-82
2022/11/11 11:20:43;;;;;;;;;;;;;;;;;;;;;
2022/11/11 11:23:33;;;;;;;;;9.00;8.00;;;;;14.61;92.10;102645.34;5063435;28;74631;-81
2022/11/11 11:25:58;;;;;;;;;8.33;8.33;;;;;14.42;92.23;102612.41;5073218;28;45482;-83
2022/11/11 11:28:24;;;;;;;;;11.00;10.00;;;;;14.66;92.55;102642.22;5061401;28;45337;-81
2022/11/11 11:31:04;;;;;;;;;11.00;11.00;;;;;14.70;91.86;102639.03;5057471;28;45947;-81
2022/11/11 11:33:54;;;;;;;;;8.67;8.67;;;;;14.75;91.56;102615.34;5059360;28;45641;-81
2022/11/11 11:36:19;;;;;;;;;10.67;8.00;;;;;14.92;91.40;102630.69;5061229;28;45322;-80
2022/11/11 11:38:49;;;;;;;;;9.33;9.33;;;;;14.94;91.05;102628.72;5071228;28;45384;-81
2022/11/11 11:41:17;;;;;;;;;8.00;8.00;;;;;15.01;91.25;102627.94;5078140;28;45330;-80
2022/11/11 11:43:44;;;;;;;;;7.00;7.00;;;;;14.98;90.97;102622.88;5068455;28;45415;-79
2022/11/11 11:46:25;;;;;;;;;10.67;10.00;;;;;15.10;90.95;102633.31;5061178;28;45421;-79
2022/11/11 11:49:25;;;;;;;;;7.33;7.33;;;;;15.25;90.71;102634.44;5070544;28;45302;-79
2022/11/11 11:52:03;;;;;;;;;12.67;9.33;;;;;15.38;90.83;102633.97;5067081;28;45351;-79
2022/11/11 11:54:47;;;;;;;;;8.33;8.33;;;;;15.45;90.50;102633.34;5060836;28;45384;-78
2022/11/11 11:57:26;;;;;;;;;13.33;12.67;;;;;15.51;89.67;102630.03;5075319;28;45200;-78
2022/11/11 12:00:19;;;;;;;;;11.67;9.67;;;;;15.56;89.52;102634.91;5067378;28;44792;-78
2022/11/11 12:03:18;;;;;;;;;9.33;9.00;;;;;15.63;89.54;102625.22;5075438;28;45259;-78
2022/11/11 12:06:02;;;;;;;;;9.67;9.00;;;;;15.77;88.45;102621.91;5067455;28;47196;-78
2022/11/11 12:08:54;;;;;;;;;11.67;10.67;;;;;15.84;88.57;102618.56;5061414;28;45422;-79
2022/11/11 12:11:28;;;;;;;;;12.33;11.67;;;;;15.78;88.34;102612.03;5061875;28;45387;-75
2022/11/11 12:14:05;;;;;;;;;15.00;12.00;;;;;15.73;88.53;102611.66;5060976;28;45905;-76
2022/11/11 12:16:39;;;;;;;;;16.67;15.67;;;;;15.69;88.19;102613.84;5063209;28;47190;-76
2022/11/11 12:19:19;;;;;;;;;31.00;29.00;;;;;15.62;88.12;102613.66;5071583;28;45577;-80
2022/11/11 12:22:03;;;;;;;;;23.67;21.00;;;;;15.54;88.22;102613.63;5078481;28;45220;-80
2022/11/11 12:24:52;;;;;;;;;9.00;8.00;;;;;15.46;88.45;102610.91;5061701;28;45306;-79
2022/11/11 12:27:49;;;;;;;;;11.00;11.00;;;;;15.42;87.83;102615.75;5081861;28;45257;-77
2022/11/11 12:30:19;;;;;;;;;10.00;9.33;;;;;15.34;87.67;102605.00;5077309;28;45377;-76
2022/11/11 12:33:12;;;;;;;;;11.33;11.33;;;;;15.25;88.00;102591.56;5081790;28;45268;-79
2022/11/11 12:36:01;;;;;;;;;9.33;9.33;;;;;15.06;87.54;102568.56;5072065;28;45447;-77
2022/11/11 12:38:57;;;;;;;;;16.67;16.67;;;;;15.07;87.94;102582.75;5052465;28;45469;-77